Time;durP1;ratioP1;P1;durP2;ratioP2;P2;SDS_P1;SDS_P2;PMS_P1;PMS_P2;Temp;Humidity;BMP_temperature;BMP_pressure;BME280_temperature;BME280_humidity;BME280_pressure;Samples;Min_cycle;Max_cycle;Signal;HPM_P1;HPM_P2
2022/10/02 00:03:48;;;;;;;1.87;1.40;;;11.20;99.90;;;;;;8375045;28;20204;-68
2022/10/02 00:07:56;;;;;;;3.50;1.30;;;11.20;99.90;;;;;;8359647;28;20193;-68
2022/10/02 00:11:59;;;;;;;3.33;1.20;;;11.20;99.90;;;;;;8356917;28;20308;-68
2022/10/02 00:16:03;;;;;;;6.33;1.47;;;11.30;99.90;;;;;;8362443;28;20193;-68
2022/10/02 00:20:17;;;;;;;3.80;1.27;;;11.30;99.90;;;;;;8359945;28;20188;-67
2022/10/02 00:24:24;;;;;;;2.17;1.60;;;11.30;99.90;;;;;;8361485;28;20196;-68
2022/10/02 00:28:30;;;;;;;5.57;1.30;;;11.40;99.90;;;;;;8379843;28;20192;-68
2022/10/02 00:32:50;;;;;;;3.70;1.30;;;11.40;99.90;;;;;;8361655;28;20208;-68
2022/10/02 00:37:22;;;;;;;3.23;1.70;;;11.40;99.90;;;;;;8378198;28;20181;-68
2022/10/02 00:41:32;;;;;;;4.77;1.40;;;11.40;99.90;;;;;;8354064;28;20192;-68
2022/10/02 00:46:03;;;;;;;3.70;1.00;;;11.50;99.90;;;;;;8370904;28;20185;-68
2022/10/02 00:50:18;;;;;;;4.37;1.20;;;11.50;99.90;;;;;;8360395;28;20190;-68
2022/10/02 00:54:59;;;;;;;4.90;1.23;;;11.40;99.90;;;;;;8350827;28;20272;-68
2022/10/02 00:59:21;;;;;;;4.30;1.10;;;11.50;99.90;;;;;;8359822;28;20205;-68
2022/10/02 01:03:35;;;;;;;6.30;1.30;;;11.40;99.90;;;;;;8365850;28;20220;-68
2022/10/02 01:07:40;;;;;;;3.60;1.10;;;11.40;99.90;;;;;;8376538;28;20252;-67
2022/10/02 01:11:42;;;;;;;3.50;1.57;;;11.40;99.90;;;;;;8366707;28;20214;-68
2022/10/02 01:15:50;;;;;;;5.33;1.33;;;11.40;99.90;;;;;;8361329;28;20185;-68
2022/10/02 01:19:51;;;;;;;4.37;1.83;;;11.40;99.90;;;;;;8362791;28;20188;-67
2022/10/02 01:23:55;;;;;;;4.63;1.20;;;11.40;99.90;;;;;;8361656;28;20199;-66
2022/10/02 01:27:56;;;;;;;2.30;1.10;;;11.30;99.90;;;;;;8364744;28;20545;-69
2022/10/02 01:31:57;;;;;;;4.70;1.30;;;11.20;99.90;;;;;;8353676;28;20206;-68
2022/10/02 01:35:58;;;;;;;3.23;1.20;;;11.10;99.90;;;;;;8364583;28;20188;-67
2022/10/02 01:40:04;;;;;;;5.40;1.50;;;11.00;99.90;;;;;;8363763;28;20198;-67
2022/10/02 01:44:05;;;;;;;2.43;1.10;;;11.00;99.90;;;;;;8362716;28;20181;-67
2022/10/02 01:48:37;;;;;;;6.33;1.50;;;10.90;99.90;;;;;;8359723;28;20248;-67
2022/10/02 01:53:02;;;;;;;6.83;1.23;;;10.70;99.90;;;;;;8347902;28;20223;-67
2022/10/02 01:57:32;;;;;;;5.70;1.10;;;10.80;99.90;;;;;;8361518;28;20214;-68
2022/10/02 02:01:45;;;;;;;5.37;1.30;;;10.90;99.90;;;;;;8361028;28;20235;-68
2022/10/02 02:05:49;;;;;;;4.70;1.77;;;11.00;99.90;;;;;;8353842;28;20187;-68
2022/10/02 02:10:01;;;;;;;4.83;1.07;;;11.00;99.90;;;;;;8358936;28;20257;-67
2022/10/02 02:14:19;;;;;;;5.73;1.27;;;11.10;99.90;;;;;;8361340;28;20274;-67
2022/10/02 02:18:26;;;;;;;6.43;1.53;;;11.20;99.90;;;;;;8368522;28;20233;-68
2022/10/02 02:22:32;;;;;;;3.73;1.20;;;11.20;99.90;;;;;;8360579;28;20189;-68
2022/10/02 02:26:34;;;;;;;3.13;1.03;;;11.20;99.90;;;;;;8380254;28;20201;-67
2022/10/02 02:30:39;;;;;;;5.37;1.27;;;11.10;99.90;;;;;;8368522;28;20192;-67
2022/10/02 02:34:52;;;;;;;7.43;1.43;;;11.00;99.90;;;;;;8367823;28;20307;-67
2022/10/02 02:39:00;;;;;;;6.93;1.27;;;10.80;99.90;;;;;;8359811;28;20234;-67
2022/10/02 02:43:18;;;;;;;3.43;1.33;;;10.70;99.90;;;;;;8353068;28;20196;-68
2022/10/02 02:47:25;;;;;;;8.13;2.17;;;10.60;99.90;;;;;;8356312;28;20188;-68
2022/10/02 02:51:38;;;;;;;6.07;1.30;;;10.50;99.90;;;;;;8363743;28;20183;-66
2022/10/02 02:55:45;;;;;;;4.57;1.23;;;10.50;99.90;;;;;;8358737;28;20252;-67
2022/10/02 02:59:49;;;;;;;8.17;1.63;;;10.30;99.90;;;;;;8365091;28;20188;-67
2022/10/02 03:03:50;;;;;;;4.97;1.50;;;10.30;99.90;;;;;;8352393;28;20261;-67
2022/10/02 03:07:56;;;;;;;2.83;1.27;;;10.30;99.90;;;;;;8359603;28;20293;-68
2022/10/02 03:12:03;;;;;;;2.93;1.33;;;10.20;99.90;;;;;;8361491;28;20209;-68
2022/10/02 03:16:07;;;;;;;3.93;1.60;;;10.20;99.90;;;;;;8342971;28;20191;-68
2022/10/02 03:20:20;;;;;;;4.77;1.73;;;10.20;99.90;;;;;;8367297;28;20232;-68
2022/10/02 03:24:26;;;;;;;4.70;1.50;;;10.20;99.90;;;;;;8368129;28;20195;-67
2022/10/02 03:28:59;;;;;;;7.17;1.77;;;10.20;99.90;;;;;;8361988;28;20615;-69
2022/10/02 03:33:02;;;;;;;8.13;1.60;;;10.20;99.90;;;;;;8341563;28;20246;-67
2022/10/02 03:37:04;;;;;;;5.93;1.60;;;10.30;99.90;;;;;;8365334;28;20183;-67
2022/10/02 03:41:05;;;;;;;2.40;1.37;;;10.30;99.90;;;;;;8362142;28;20188;-67
2022/10/02 03:45:06;;;;;;;8.63;1.57;;;10.40;99.90;;;;;;8353881;28;20226;-68
2022/10/02 03:49:07;;;;;;;6.97;1.57;;;10.30;99.90;;;;;;8359298;28;20206;-68
2022/10/02 03:53:20;;;;;;;5.63;2.00;;;10.30;99.90;;;;;;8359228;28;20213;-67
2022/10/02 03:57:24;;;;;;;6.17;1.60;;;10.30;99.90;;;;;;8357494;28;20200;-67
2022/10/02 04:01:31;;;;;;;4.63;1.43;;;10.40;99.90;;;;;;8359453;28;20394;-69
2022/10/02 04:05:54;;;;;;;4.20;1.17;;;10.40;99.90;;;;;;8377500;28;20231;-67
2022/10/02 04:10:19;;;;;;;4.23;1.53;;;10.50;99.90;;;;;;8364788;28;20182;-69
2022/10/02 04:14:24;;;;;;;6.87;1.40;;;10.60;99.90;;;;;;8356173;28;20239;-68
2022/10/02 04:18:47;;;;;;;6.63;1.80;;;10.80;99.90;;;;;;8373766;28;20195;-68
2022/10/02 04:23:06;;;;;;;3.70;1.20;;;10.90;99.90;;;;;;8360613;28;20257;-67
2022/10/02 04:27:13;;;;;;;6.23;1.33;;;11.00;99.90;;;;;;8353267;28;20191;-68
2022/10/02 04:31:14;;;;;;;7.90;1.50;;;11.00;99.90;;;;;;8382756;28;20704;-67
2022/10/02 04:35:24;;;;;;;6.10;1.60;;;11.10;99.90;;;;;;8355711;28;20212;-71
2022/10/02 04:39:56;;;;;;;2.80;1.13;;;11.10;99.90;;;;;;8364720;28;20192;-67
2022/10/02 04:44:00;;;;;;;6.13;1.60;;;11.10;99.90;;;;;;8362078;28;20196;-68
2022/10/02 04:48:19;;;;;;;5.77;0.87;;;11.10;99.90;;;;;;8362131;28;20189;-67
2022/10/02 04:52:45;;;;;;;3.90;1.50;;;11.10;99.90;;;;;;8347127;28;20602;-67
2022/10/02 04:57:10;;;;;;;5.30;1.40;;;11.20;99.90;;;;;;8360259;28;20177;-67
2022/10/02 05:01:20;;;;;;;6.20;1.67;;;11.10;99.90;;;;;;8364772;28;20192;-68
2022/10/02 05:05:39;;;;;;;8.07;1.70;;;11.00;99.90;;;;;;8359696;28;20180;-67
2022/10/02 05:10:01;;;;;;;4.67;1.60;;;10.90;99.90;;;;;;8359640;28;20212;-68
2022/10/02 05:14:18;;;;;;;6.57;1.50;;;10.80;99.90;;;;;;8356890;28;20246;-67
2022/10/02 05:18:45;;;;;;;6.80;2.60;;;10.70;99.90;;;;;;8374361;28;20185;-67
2022/10/02 05:23:00;;;;;;;5.87;1.60;;;10.60;99.90;;;;;;8361823;28;20192;-68
2022/10/02 05:27:21;;;;;;;6.17;2.10;;;10.50;99.90;;;;;;8360860;28;20184;-68
2022/10/02 05:31:36;;;;;;;8.13;1.70;;;10.60;99.90;;;;;;8350404;28;20195;-67
2022/10/02 05:35:55;;;;;;;7.43;2.13;;;10.70;99.90;;;;;;8361995;28;20562;-69
2022/10/02 05:40:24;;;;;;;6.83;1.73;;;10.80;99.90;;;;;;8368968;28;20184;-67
2022/10/02 05:44:36;;;;;;;4.77;1.30;;;10.90;99.90;;;;;;8376810;28;20195;-68
2022/10/02 05:48:42;;;;;;;5.50;1.53;;;10.90;99.90;;;;;;8366204;28;20192;-68
2022/10/02 05:53:09;;;;;;;8.30;1.73;;;10.90;99.90;;;;;;8369665;28;20307;-68
2022/10/02 05:57:12;;;;;;;5.47;1.57;;;10.90;99.90;;;;;;8365036;28;20187;-68
2022/10/02 06:01:45;;;;;;;7.87;1.87;;;10.90;99.90;;;;;;8362639;28;20232;-68
2022/10/02 06:05:59;;;;;;;9.20;1.70;;;11.00;99.90;;;;;;8363896;28;20223;-69
2022/10/02 06:10:11;;;;;;;5.37;1.37;;;11.00;99.90;;;;;;8352316;28;20541;-67
2022/10/02 06:14:32;;;;;;;4.47;1.43;;;11.10;99.90;;;;;;8367083;28;20288;-69
2022/10/02 06:18:37;;;;;;;6.67;1.80;;;11.20;99.90;;;;;;8362948;28;20184;-68
2022/10/02 06:22:51;;;;;;;5.20;1.73;;;11.30;99.90;;;;;;8361535;28;20282;-68
2022/10/02 06:27:11;;;;;;;6.00;1.47;;;11.50;99.90;;;;;;8359378;28;20186;-68
2022/10/02 06:31:31;;;;;;;5.93;1.83;;;11.80;99.90;;;;;;8363528;28;20198;-69
2022/10/02 06:35:37;;;;;;;5.83;1.87;;;12.30;99.90;;;;;;8367894;28;20217;-69
2022/10/02 06:40:04;;;;;;;4.63;1.50;;;12.50;99.90;;;;;;8375544;28;20185;-69
2022/10/02 06:44:29;;;;;;;7.03;1.53;;;12.50;1.00;;;;;;8366602;28;20213;-68
2022/10/02 06:48:57;;;;;;;6.27;1.30;;;12.40;99.90;;;;;;8360088;28;20198;-68
2022/10/02 06:53:04;;;;;;;12.37;2.70;;;12.40;99.90;;;;;;8360970;28;20212;-67
2022/10/02 06:57:11;;;;;;;9.00;1.20;;;12.40;99.90;;;;;;8346372;28;20271;-68
2022/10/02 07:01:36;;;;;;;4.67;1.73;;;12.50;99.90;;;;;;8379984;28;20313;-69
2022/10/02 07:05:59;;;;;;;9.20;1.90;;;12.50;99.90;;;;;;8352795;28;20196;-68
2022/10/02 07:10:28;;;;;;;5.70;1.93;;;12.70;99.90;;;;;;8361365;28;20182;-68
2022/10/02 07:14:43;;;;;;;5.17;1.40;;;12.70;99.90;;;;;;8354884;28;20226;-69
2022/10/02 07:19:03;;;;;;;7.97;1.60;;;12.60;99.90;;;;;;8361867;28;20231;-69
2022/10/02 07:23:23;;;;;;;6.03;2.00;;;12.60;99.90;;;;;;8362821;28;20182;-68
2022/10/02 07:27:41;;;;;;;6.27;1.37;;;12.70;99.90;;;;;;8362434;28;20182;-70
2022/10/02 07:31:47;;;;;;;3.93;1.20;;;12.90;58.10;;;;;;8361771;28;20208;-68
2022/10/02 07:36:10;;;;;;;4.63;1.70;;;13.10;1.00;;;;;;8357158;28;20186;-68
2022/10/02 07:40:30;;;;;;;4.73;1.27;;;13.30;1.00;;;;;;8356396;28;20201;-69
2022/10/02 07:44:46;;;;;;;5.90;1.57;;;13.40;1.00;;;;;;8377137;28;20217;-70
2022/10/02 07:49:02;;;;;;;5.03;1.50;;;13.40;1.00;;;;;;8358255;28;20182;-69
2022/10/02 07:53:29;;;;;;;7.13;1.70;;;13.40;1.00;;;;;;8378837;28;20300;-67
2022/10/02 07:57:41;;;;;;;4.93;1.90;;;13.40;1.00;;;;;;8363893;28;20196;-69
2022/10/02 08:01:44;;;;;;;7.23;1.67;;;13.50;1.00;;;;;;8369602;28;20193;-68
2022/10/02 08:05:53;;;;;;;5.63;1.50;;;13.80;1.00;;;;;;8357714;28;20194;-68
2022/10/02 08:10:00;;;;;;;7.00;1.23;;;13.90;1.00;;;;;;8362275;28;20190;-69
2022/10/02 08:14:12;;;;;;;4.63;1.40;;;14.00;1.00;;;;;;8350230;28;20308;-68
2022/10/02 08:18:20;;;;;;;6.00;1.30;;;14.10;1.00;;;;;;8357547;28;20197;-69
2022/10/02 08:22:25;;;;;;;6.87;2.00;;;14.20;1.00;;;;;;8350357;28;20190;-68
2022/10/02 08:26:29;;;;;;;4.97;2.03;;;14.30;99.90;;;;;;8362706;28;20317;-69
2022/10/02 08:30:30;;;;;;;5.73;1.70;;;14.30;1.00;;;;;;8362659;28;20272;-68
2022/10/02 08:34:32;;;;;;;6.63;1.93;;;14.50;99.90;;;;;;8360931;28;20209;-70
2022/10/02 08:38:46;;;;;;;5.93;1.80;;;14.40;99.90;;;;;;8357513;28;20186;-69
2022/10/02 08:43:07;;;;;;;6.97;1.87;;;14.50;99.90;;;;;;8362961;28;20190;-68
2022/10/02 08:47:56;;;;;;;7.20;1.70;;;14.70;99.90;;;;;;8347236;28;20248;-69
2022/10/02 08:52:35;;;;;;;8.13;1.60;;;15.00;99.90;;;;;;8336389;28;20209;-70
2022/10/02 08:56:57;;;;;;;5.00;1.70;;;15.10;99.90;;;;;;8286550;28;20233;-69
2022/10/02 09:01:15;;;;;;;6.00;1.63;;;15.40;99.90;;;;;;8367935;28;20196;-69
2022/10/02 09:05:32;;;;;;;8.23;1.40;;;15.50;99.90;;;;;;8367180;28;20185;-69
2022/10/02 09:09:41;;;;;;;4.90;1.27;;;15.50;99.90;;;;;;8370430;28;20556;-68
2022/10/02 09:14:20;;;;;;;4.47;1.40;;;15.90;99.90;;;;;;8368322;28;20277;-67
2022/10/02 09:18:33;;;;;;;7.30;1.60;;;16.00;99.90;;;;;;8354226;28;20254;-69
2022/10/02 09:23:02;;;;;;;7.30;1.50;;;16.00;99.90;;;;;;8350426;28;20194;-69
2022/10/02 09:27:20;;;;;;;8.30;1.73;;;15.80;99.90;;;;;;8377935;28;20201;-67
2022/10/02 09:31:55;;;;;;;7.53;1.53;;;15.80;99.90;;;;;;8359887;28;20197;-69
2022/10/02 09:36:17;;;;;;;6.13;1.70;;;15.90;99.90;;;;;;8368149;28;20186;-68
2022/10/02 09:40:33;;;;;;;4.40;1.40;;;16.10;99.90;;;;;;8362198;28;20181;-69
2022/10/02 09:44:57;;;;;;;7.53;1.90;;;16.20;99.90;;;;;;8372220;28;20188;-71
2022/10/02 09:49:19;;;;;;;7.97;1.80;;;16.40;99.90;;;;;;8358894;28;20183;-67
2022/10/02 09:53:29;;;;;;;6.27;1.80;;;16.50;99.90;;;;;;8366499;28;20217;-69
2022/10/02 09:58:11;;;;;;;6.20;1.57;;;16.40;99.90;;;;;;8362025;28;20192;-70
2022/10/02 10:02:41;;;;;;;3.30;1.43;;;16.50;95.40;;;;;;8365125;28;20278;-70
2022/10/02 10:06:53;;;;;;;5.10;1.20;;;17.00;78.90;;;;;;8361482;28;20194;-69
2022/10/02 10:10:54;;;;;;;6.90;1.20;;;17.40;47.60;;;;;;8375549;28;20240;-69
2022/10/02 10:15:37;;;;;;;6.10;1.50;;;17.40;1.00;;;;;;8366772;28;20216;-71
2022/10/02 10:20:06;;;;;;;9.37;1.63;;;16.70;18.90;;;;;;8364251;28;20178;-70
2022/10/02 10:24:26;;;;;;;7.53;1.33;;;16.10;97.30;;;;;;8365362;28;20231;-70
2022/10/02 10:28:42;;;;;;;5.83;1.80;;;15.80;99.90;;;;;;8382314;28;20201;-68
2022/10/02 10:33:04;;;;;;;5.23;1.47;;;15.40;99.90;;;;;;8364695;28;20233;-67
2022/10/02 10:42:15;;;;;;;4.83;1.57;;;14.80;66.00;;;;;;8360982;28;20247;-66
2022/10/02 10:46:25;;;;;;;4.70;1.53;;;14.70;24.00;;;;;;8363067;28;20212;-67
2022/10/02 10:50:37;;;;;;;6.20;1.90;;;14.60;81.50;;;;;;8360369;28;20189;-67
2022/10/02 11:00:02;;;;;;;5.97;1.80;;;14.20;1.00;;;;;;8362643;28;20189;-67
2022/10/02 11:04:05;;;;;;;5.47;1.40;;;13.90;99.90;;;;;;8356869;28;20209;-67
2022/10/02 11:08:26;;;;;;;3.90;1.73;;;13.60;1.00;;;;;;8361922;28;20201;-68
2022/10/02 11:12:50;;;;;;;3.37;1.10;;;13.30;1.00;;;;;;8379749;28;20357;-67
2022/10/02 11:17:25;;;;;;;4.43;1.00;;;13.20;1.00;;;;;;8355745;28;20249;-68
2022/10/02 11:21:31;;;;;;;4.67;0.90;;;13.20;1.00;;;;;;8357878;28;20194;-68
2022/10/02 11:25:53;;;;;;;2.47;0.97;;;13.40;99.90;;;;;;8365496;28;20316;-67
2022/10/02 11:30:12;;;;;;;1.67;1.07;;;13.40;99.90;;;;;;8360396;28;20188;-68
2022/10/02 11:34:36;;;;;;;3.60;0.93;;;13.60;99.90;;;;;;8356615;28;20211;-68
2022/10/02 11:39:03;;;;;;;2.87;0.93;;;13.90;1.00;;;;;;8358860;28;20177;-68
2022/10/02 11:43:27;;;;;;;6.67;1.53;;;14.20;99.90;;;;;;8373508;28;20190;-69
2022/10/02 11:48:00;;;;;;;6.40;1.50;;;14.20;1.00;;;;;;8364545;28;20193;-68
2022/10/02 11:52:03;;;;;;;4.47;1.53;;;14.20;1.00;;;;;;8327104;28;20245;-67
2022/10/02 11:56:33;;;;;;;3.13;1.50;;;14.50;94.00;;;;;;8364754;28;20182;-68
2022/10/02 12:00:34;;;;;;;6.90;1.60;;;14.60;99.90;;;;;;8360071;28;20202;-68
2022/10/02 12:05:03;;;;;;;7.53;2.17;;;14.80;1.00;;;;;;8365103;28;20559;-67
2022/10/02 12:09:29;;;;;;;6.17;1.50;;;15.00;99.90;;;;;;8360273;28;20197;-70
2022/10/02 12:14:00;;;;;;;4.30;2.33;;;15.20;99.90;;;;;;8363991;28;20213;-69
2022/10/02 12:18:30;;;;;;;4.00;1.60;;;15.30;99.90;;;;;;8364374;28;20178;-69
2022/10/02 12:27:38;;;;;;;4.30;1.60;;;16.10;14.50;;;;;;8357861;28;20201;-70
2022/10/02 12:32:21;;;;;;;4.67;1.43;;;16.50;99.90;;;;;;8363566;28;20281;-70
2022/10/02 12:36:41;;;;;;;5.47;1.77;;;16.70;99.90;;;;;;8365950;28;20204;-70
2022/10/02 12:40:51;;;;;;;5.70;1.50;;;17.00;99.90;;;;;;8382035;28;20184;-69
2022/10/02 12:45:28;;;;;;;5.03;1.60;;;17.40;99.90;;;;;;8367565;28;20194;-69
2022/10/02 12:49:52;;;;;;;4.47;1.57;;;17.90;99.90;;;;;;8350177;28;20185;-70
2022/10/02 12:54:05;;;;;;;4.60;1.33;;;18.10;99.90;;;;;;8370390;28;20205;-68
2022/10/02 12:58:24;;;;;;;5.27;1.80;;;18.20;99.90;;;;;;8364937;28;20201;-69
2022/10/02 13:03:04;;;;;;;5.87;1.80;;;17.80;99.90;;;;;;8366379;28;20198;-68
2022/10/02 13:07:43;;;;;;;6.33;1.80;;;17.30;99.90;;;;;;8362704;28;20197;-69
2022/10/02 13:12:14;;;;;;;6.03;1.60;;;17.00;99.90;;;;;;8364279;28;20206;-69
2022/10/02 13:16:25;;;;;;;4.93;1.70;;;16.70;99.90;;;;;;8368336;28;20213;-68
2022/10/02 13:20:54;;;;;;;5.87;1.97;;;16.40;99.90;;;;;;8367954;28;20232;-68
2022/10/02 13:25:16;;;;;;;4.20;1.50;;;16.30;99.90;;;;;;8370780;28;20231;-68
2022/10/02 13:29:51;;;;;;;4.57;1.60;;;16.40;99.90;;;;;;8364696;28;20181;-68
2022/10/02 13:33:58;;;;;;;5.47;1.93;;;16.50;99.90;;;;;;8365023;28;20206;-67
2022/10/02 13:38:35;;;;;;;6.50;1.73;;;16.10;99.90;;;;;;8349232;28;20174;-67
2022/10/02 13:43:05;;;;;;;7.83;1.90;;;15.60;99.90;;;;;;8361760;28;20194;-67
2022/10/02 13:47:21;;;;;;;6.90;2.40;;;15.20;1.00;;;;;;8380010;28;20188;-67
2022/10/02 13:51:44;;;;;;;6.70;2.23;;;14.80;8.10;;;;;;8351826;28;20213;-67
2022/10/02 13:55:57;;;;;;;11.20;2.70;;;14.40;99.90;;;;;;8379667;28;20260;-68
2022/10/02 14:00:41;;;;;;;7.90;2.73;;;13.90;99.90;;;;;;8351057;28;20182;-68
2022/10/02 14:05:15;;;;;;;5.63;1.93;;;13.40;99.90;;;;;;8366380;28;20253;-67
2022/10/02 14:09:19;;;;;;;4.27;1.83;;;13.30;99.90;;;;;;8366065;28;20193;-69
2022/10/02 14:13:47;;;;;;;4.33;1.90;;;13.10;99.90;;;;;;8360590;28;20256;-69
2022/10/02 14:18:17;;;;;;;8.70;2.27;;;13.00;1.00;;;;;;8364221;28;20231;-68
2022/10/02 14:22:53;;;;;;;3.43;1.50;;;13.00;99.90;;;;;;8349055;28;20220;-66
2022/10/02 14:27:18;;;;;;;6.40;1.87;;;13.00;99.90;;;;;;8364156;28;20179;-67
2022/10/02 14:31:49;;;;;;;3.53;1.60;;;13.00;1.00;;;;;;8357327;28;20180;-68
2022/10/02 14:36:17;;;;;;;2.80;1.50;;;13.00;99.90;;;;;;8361300;28;20209;-67
2022/10/02 14:40:19;;;;;;;4.33;1.60;;;13.00;1.00;;;;;;8347597;28;20186;-69
2022/10/02 14:45:05;;;;;;;5.77;1.90;;;13.00;99.90;;;;;;8363756;28;20188;-67
2022/10/02 14:49:31;;;;;;;4.40;1.60;;;13.00;99.90;;;;;;8358508;28;20169;-67
2022/10/02 14:53:53;;;;;;;3.23;1.47;;;13.00;99.90;;;;;;8360751;28;20209;-67
2022/10/02 14:58:14;;;;;;;4.97;1.50;;;12.90;29.00;;;;;;8363375;28;20192;-67
2022/10/02 15:02:40;;;;;;;2.90;1.43;;;12.90;1.00;;;;;;8362597;28;20193;-67
2022/10/02 15:07:03;;;;;;;3.90;1.77;;;13.20;4.50;;;;;;8351388;28;20411;-67
2022/10/02 15:11:17;;;;;;;3.60;1.20;;;13.30;1.00;;;;;;8357033;28;20173;-68
2022/10/02 15:15:39;;;;;;;4.20;1.90;;;13.10;23.40;;;;;;8362698;28;20228;-67
2022/10/02 15:20:10;;;;;;;2.50;1.47;;;12.90;1.00;;;;;;8364458;28;20193;-68
2022/10/02 15:24:39;;;;;;;3.30;1.43;;;12.70;99.90;;;;;;8352500;28;20196;-68
2022/10/02 15:29:07;;;;;;;4.77;1.37;;;12.50;1.00;;;;;;8346236;28;20197;-68
2022/10/02 15:33:54;;;;;;;1.67;0.97;;;12.40;1.00;;;;;;8380418;28;20204;-68
2022/10/02 15:38:04;;;;;;;5.63;1.90;;;12.30;99.90;;;;;;8259428;28;20194;-69
2022/10/02 15:42:08;;;;;;;3.10;1.47;;;12.20;99.90;;;;;;8319083;28;20213;-68
2022/10/02 15:46:24;;;;;;;3.10;1.57;;;12.10;1.00;;;;;;8362667;28;20228;-69
2022/10/02 15:51:02;;;;;;;5.33;1.37;;;12.00;99.90;;;;;;8363954;28;20182;-67
2022/10/02 15:55:37;;;;;;;5.53;1.23;;;11.90;99.90;;;;;;8358409;28;20210;-67
2022/10/02 16:00:09;;;;;;;2.40;1.10;;;11.80;99.90;;;;;;8358822;28;20185;-70
2022/10/02 16:04:43;;;;;;;1.80;0.93;;;11.80;99.90;;;;;;8358959;28;20286;-67
2022/10/02 16:09:02;;;;;;;2.93;1.10;;;11.60;99.90;;;;;;8324484;28;20257;-68
2022/10/02 16:13:28;;;;;;;3.03;1.20;;;11.50;99.90;;;;;;8360265;28;20213;-68
2022/10/02 16:17:51;;;;;;;2.83;1.23;;;11.30;99.90;;;;;;8356707;28;20182;-68
2022/10/02 16:22:10;;;;;;;2.83;1.37;;;11.20;99.90;;;;;;8349976;28;20218;-68
2022/10/02 16:26:44;;;;;;;2.70;1.50;;;11.00;99.90;;;;;;8361586;28;20184;-68
2022/10/02 16:30:51;;;;;;;4.67;1.73;;;10.80;99.90;;;;;;8362342;28;20199;-68
2022/10/02 16:35:15;;;;;;;3.10;1.63;;;10.70;99.90;;;;;;8353902;28;20247;-69
2022/10/02 16:39:43;;;;;;;4.33;1.83;;;10.60;99.90;;;;;;8373435;28;20183;-67
2022/10/02 16:44:07;;;;;;;2.47;1.60;;;10.60;99.90;;;;;;8353331;28;20183;-68
2022/10/02 16:48:23;;;;;;;5.60;2.37;;;10.50;99.90;;;;;;8365984;28;20191;-68
2022/10/02 16:52:36;;;;;;;3.80;1.93;;;10.50;99.90;;;;;;8352718;28;20207;-67
2022/10/02 16:56:52;;;;;;;3.43;1.67;;;10.40;99.90;;;;;;8375599;28;20176;-67
2022/10/02 17:01:01;;;;;;;4.03;2.33;;;10.40;99.90;;;;;;8358429;28;20290;-67
2022/10/02 17:05:24;;;;;;;4.30;2.10;;;10.30;99.90;;;;;;8359906;28;20192;-67
2022/10/02 17:09:42;;;;;;;6.27;2.43;;;10.40;99.90;;;;;;8365584;28;20216;-68
2022/10/02 17:13:43;;;;;;;4.10;2.90;;;10.30;99.90;;;;;;8365491;28;20318;-67
2022/10/02 17:17:59;;;;;;;7.17;3.30;;;10.30;99.90;;;;;;8356626;28;20181;-68
2022/10/02 17:22:08;;;;;;;5.23;3.00;;;10.20;99.90;;;;;;8359699;28;20196;-68
2022/10/02 17:26:39;;;;;;;5.43;3.27;;;10.20;99.90;;;;;;8370497;28;20270;-67
2022/10/02 17:31:07;;;;;;;4.60;2.90;;;10.20;99.90;;;;;;8357645;28;20275;-67
2022/10/02 17:35:45;;;;;;;6.80;3.30;;;10.20;99.90;;;;;;8361275;28;20299;-68
2022/10/02 17:40:09;;;;;;;5.67;3.70;;;10.20;99.90;;;;;;8337847;28;20219;-69
2022/10/02 17:44:24;;;;;;;6.97;3.10;;;10.20;99.90;;;;;;8356350;28;20187;-67
2022/10/02 17:48:31;;;;;;;4.77;3.40;;;10.20;99.90;;;;;;8360000;28;20267;-68
2022/10/02 17:57:10;;;;;;;5.77;3.30;;;10.20;99.90;;;;;;8365582;28;20256;-67
2022/10/02 18:01:42;;;;;;;7.80;3.43;;;10.20;99.90;;;;;;8366727;28;20194;-68
2022/10/02 18:05:55;;;;;;;6.77;3.30;;;10.10;99.90;;;;;;8365196;28;20195;-67
2022/10/02 18:10:22;;;;;;;5.93;3.23;;;10.10;99.90;;;;;;8360375;28;20195;-68
2022/10/02 18:14:54;;;;;;;5.03;2.73;;;10.00;99.90;;;;;;8361918;28;20208;-70
2022/10/02 18:18:58;;;;;;;7.13;2.97;;;10.00;99.90;;;;;;8366005;28;20178;-67
2022/10/02 18:23:30;;;;;;;3.67;2.63;;;9.90;99.90;;;;;;8363316;28;20175;-67
2022/10/02 18:27:41;;;;;;;7.60;3.47;;;9.80;99.90;;;;;;8358744;28;20264;-68
2022/10/02 18:32:15;;;;;;;7.30;3.17;;;9.80;99.90;;;;;;8359416;28;20183;-68
2022/10/02 18:36:16;;;;;;;9.63;2.87;;;9.70;99.90;;;;;;8360683;28;20183;-68
2022/10/02 18:40:26;;;;;;;5.90;3.13;;;9.70;99.90;;;;;;8362605;28;20190;-71
2022/10/02 18:44:59;;;;;;;9.20;3.27;;;9.70;99.90;;;;;;8347124;28;20178;-68
2022/10/02 18:49:15;;;;;;;6.23;3.00;;;9.70;99.90;;;;;;8365906;28;20186;-68
2022/10/02 18:53:42;;;;;;;6.67;3.40;;;9.60;99.90;;;;;;8366064;28;20196;-69
2022/10/02 18:58:03;;;;;;;3.97;3.07;;;9.60;99.90;;;;;;8360416;28;20178;-68
2022/10/02 19:02:37;;;;;;;7.77;3.20;;;9.50;99.90;;;;;;8353667;28;20251;-67
2022/10/02 19:06:51;;;;;;;7.80;3.13;;;9.50;99.90;;;;;;8333552;28;20201;-68
2022/10/02 19:10:52;;;;;;;6.60;2.93;;;9.40;99.90;;;;;;8361403;28;20268;-67
2022/10/02 19:14:55;;;;;;;6.17;3.60;;;9.30;99.90;;;;;;8356340;28;20214;-68
2022/10/02 19:19:10;;;;;;;10.37;3.23;;;9.30;99.90;;;;;;8361765;28;20181;-68
2022/10/02 19:23:28;;;;;;;6.63;2.93;;;9.30;99.90;;;;;;8361576;28;20200;-69
2022/10/02 19:27:32;;;;;;;6.27;3.40;;;9.30;99.90;;;;;;8362537;28;20464;-68
2022/10/02 19:31:37;;;;;;;4.50;2.97;;;9.40;99.90;;;;;;8362117;28;20190;-67
2022/10/02 19:35:42;;;;;;;4.93;3.27;;;9.40;99.90;;;;;;8358585;28;20209;-67
2022/10/02 19:39:51;;;;;;;7.60;3.20;;;9.40;99.90;;;;;;8358760;28;20248;-66
2022/10/02 19:43:58;;;;;;;7.07;3.07;;;9.30;99.90;;;;;;8362947;28;20183;-66
2022/10/02 19:48:03;;;;;;;8.43;3.37;;;9.30;99.90;;;;;;8363009;28;20261;-67
2022/10/02 19:52:50;;;;;;;6.17;3.27;;;9.20;99.90;;;;;;8364623;28;20182;-68
2022/10/02 19:57:15;;;;;;;5.50;2.73;;;9.10;99.90;;;;;;8353996;28;20254;-67
2022/10/02 20:01:25;;;;;;;5.50;2.53;;;9.00;99.90;;;;;;8358306;28;20194;-67
2022/10/02 20:05:30;;;;;;;4.60;2.57;;;9.00;99.90;;;;;;8358316;28;20190;-68
2022/10/02 20:09:44;;;;;;;5.80;3.10;;;9.00;99.90;;;;;;8344542;28;20215;-70
2022/10/02 20:14:11;;;;;;;6.00;3.03;;;8.90;99.90;;;;;;8364730;28;20247;-67
2022/10/02 20:18:13;;;;;;;10.97;3.47;;;8.90;99.90;;;;;;8352642;28;20268;-67
2022/10/02 20:22:29;;;;;;;4.33;3.00;;;8.80;99.90;;;;;;8344583;28;20185;-67
2022/10/02 20:26:32;;;;;;;6.43;4.00;;;8.90;99.90;;;;;;8357658;28;20473;-69
2022/10/02 20:30:57;;;;;;;8.33;3.50;;;8.90;99.90;;;;;;8362266;28;20185;-67
2022/10/02 20:35:33;;;;;;;6.03;3.50;;;9.00;99.90;;;;;;8364213;28;20214;-68
2022/10/02 20:39:48;;;;;;;7.87;3.20;;;9.10;99.90;;;;;;8361764;28;20209;-69
2022/10/02 20:44:03;;;;;;;7.73;3.43;;;9.20;99.90;;;;;;8375122;28;20194;-68
2022/10/02 20:48:36;;;;;;;7.43;3.33;;;9.20;99.90;;;;;;8363853;28;20628;-67
2022/10/02 20:52:43;;;;;;;7.23;3.30;;;9.20;99.90;;;;;;8370045;28;20232;-68
2022/10/02 20:56:53;;;;;;;10.53;4.10;;;9.20;99.90;;;;;;8364470;28;20197;-68
2022/10/02 21:01:19;;;;;;;6.73;3.53;;;9.40;99.90;;;;;;8363492;28;20197;-68
2022/10/02 21:05:46;;;;;;;9.70;3.20;;;9.50;99.90;;;;;;8359490;28;20189;-67
2022/10/02 21:10:44;;;;;;;4.83;3.00;;;9.60;99.90;;;;;;8366157;28;20461;-68
2022/10/02 21:15:11;;;;;;;4.83;2.63;;;9.70;99.90;;;;;;8270793;28;20215;-69
2022/10/02 21:19:21;;;;;;;6.87;3.10;;;9.70;99.90;;;;;;8337814;28;20340;-68
2022/10/02 21:23:49;;;;;;;5.60;2.17;;;9.70;99.90;;;;;;8363250;28;20190;-68
2022/10/02 21:28:00;;;;;;;3.33;2.40;;;9.80;99.90;;;;;;8359882;28;20189;-66
2022/10/02 21:32:27;;;;;;;5.33;2.40;;;9.80;99.90;;;;;;8380495;28;20186;-67
2022/10/02 21:36:28;;;;;;;8.10;3.17;;;9.70;99.90;;;;;;8361776;28;20225;-68
2022/10/02 21:40:41;;;;;;;4.60;2.33;;;9.70;99.90;;;;;;8364150;28;20190;-68
2022/10/02 21:44:55;;;;;;;4.93;2.30;;;9.60;99.90;;;;;;8360736;28;20186;-67
2022/10/02 21:49:18;;;;;;;9.07;2.67;;;9.60;99.90;;;;;;8360372;28;20190;-68
2022/10/02 21:53:33;;;;;;;9.70;3.00;;;9.60;99.90;;;;;;8363809;28;20305;-67
2022/10/02 21:58:14;;;;;;;9.80;3.10;;;9.70;99.90;;;;;;8366679;28;20178;-69
2022/10/02 22:02:23;;;;;;;9.37;2.67;;;9.80;99.90;;;;;;8365250;28;20193;-66
2022/10/02 22:06:52;;;;;;;9.87;2.50;;;9.90;99.90;;;;;;8361458;28;20177;-67
2022/10/02 22:11:23;;;;;;;5.67;2.43;;;10.00;99.90;;;;;;8361344;28;20228;-67
2022/10/02 22:15:40;;;;;;;8.80;2.50;;;10.00;99.90;;;;;;8355755;28;20254;-67
2022/10/02 22:20:07;;;;;;;7.90;2.67;;;10.00;99.90;;;;;;8362334;28;20182;-68
2022/10/02 22:24:18;;;;;;;7.50;2.50;;;10.00;99.90;;;;;;8368305;28;20269;-67
2022/10/02 22:28:22;;;;;;;9.47;2.43;;;9.90;99.90;;;;;;8367130;28;20186;-67
2022/10/02 22:37:06;;;;;;;9.07;2.57;;;9.90;99.90;;;;;;8363237;28;20190;-68
2022/10/02 22:41:27;;;;;;;4.50;2.07;;;9.80;99.90;;;;;;8362017;28;20260;-67
2022/10/02 22:45:38;;;;;;;4.17;2.20;;;9.70;99.90;;;;;;8349257;28;20197;-67
2022/10/02 22:50:22;;;;;;;11.17;2.77;;;9.70;99.90;;;;;;8378013;28;20211;-67
2022/10/02 22:54:38;;;;;;;5.00;2.20;;;9.70;99.90;;;;;;8362239;28;20232;-67